createdAt,value
2023-05-02T00:00:57.269Z,11.02
2023-05-02T00:03:24.311Z,11.00
2023-05-02T00:05:51.433Z,10.77
2023-05-02T00:08:18.425Z,9.63
2023-05-02T00:10:45.438Z,10.45
2023-05-02T00:13:12.573Z,11.68
2023-05-02T00:15:39.564Z,11.15
2023-05-02T00:18:06.547Z,10.88
2023-05-02T00:20:33.447Z,10.10
2023-05-02T00:23:00.307Z,10.55
2023-05-02T00:25:27.561Z,9.63
2023-05-02T00:27:55.188Z,9.88
2023-05-02T00:30:22.167Z,10.32
2023-05-02T00:32:49.400Z,10.40
2023-05-02T00:35:16.594Z,9.38
2023-05-02T00:37:43.595Z,10.07
2023-05-02T00:40:11.044Z,10.35
2023-05-02T00:42:38.087Z,11.30
2023-05-02T00:45:06.805Z,12.68
2023-05-02T00:47:34.521Z,12.48
2023-05-02T00:50:02.649Z,13.65
2023-05-02T00:52:29.898Z,13.15
2023-05-02T00:54:56.973Z,13.10
2023-05-02T00:57:23.931Z,13.05
2023-05-02T00:59:51.433Z,13.88
2023-05-02T01:02:27.680Z,14.35
2023-05-02T01:05:15.071Z,14.95
2023-05-02T01:08:06.286Z,14.82
2023-05-02T01:11:15.151Z,13.55
2023-05-02T01:13:44.588Z,13.93
2023-05-02T01:16:14.285Z,14.07
2023-05-02T01:18:42.707Z,15.10
2023-05-02T01:25:31.952Z,13.45
2023-05-02T01:28:26.873Z,13.32
2023-05-02T01:30:56.372Z,13.65
2023-05-02T01:33:25.642Z,12.13
2023-05-02T01:35:53.549Z,12.93
2023-05-02T01:38:22.878Z,12.02
2023-05-02T01:40:51.657Z,12.77
2023-05-02T01:43:20.260Z,11.70
2023-05-02T01:45:49.895Z,12.43
2023-05-02T01:48:19.455Z,12.45
2023-05-02T01:50:48.014Z,11.80
2023-05-02T01:53:15.399Z,13.82
2023-05-02T01:55:45.470Z,13.80
2023-05-02T01:58:15.612Z,13.15
2023-05-02T02:00:45.639Z,12.85
2023-05-02T02:03:14.378Z,14.27
2023-05-02T02:05:42.605Z,12.82
2023-05-02T02:08:09.658Z,14.35
2023-05-02T02:10:41.171Z,13.55
2023-05-02T02:13:17.961Z,15.00
2023-05-02T02:15:49.344Z,16.02
2023-05-02T02:18:26.539Z,14.35
2023-05-02T02:20:54.829Z,13.95
2023-05-02T02:23:25.903Z,14.15
2023-05-02T02:25:54.442Z,14.77
2023-05-02T02:28:21.740Z,13.18
2023-05-02T02:30:48.775Z,15.48
2023-05-02T02:33:15.852Z,15.93
2023-05-02T02:35:55.836Z,16.48
2023-05-02T02:39:02.089Z,16.67
2023-05-02T02:41:43.558Z,16.50
2023-05-02T02:44:27.802Z,17.40
2023-05-02T02:47:09.619Z,18.00
2023-05-02T02:49:59.575Z,18.25
2023-05-02T02:52:41.753Z,17.88
2023-05-02T02:55:32.243Z,18.98
2023-05-02T02:58:36.729Z,18.60
2023-05-02T03:01:06.676Z,18.17
2023-05-02T03:03:34.805Z,16.40
2023-05-02T03:06:03.972Z,18.05
2023-05-02T03:08:40.276Z,17.80
2023-05-02T03:11:09.641Z,18.25
2023-05-02T03:13:37.335Z,17.98
2023-05-02T03:16:28.393Z,18.85
2023-05-02T03:18:55.616Z,19.83
2023-05-02T03:21:22.731Z,19.05
2023-05-02T03:23:49.899Z,17.63
2023-05-02T03:26:17.666Z,19.42
2023-05-02T03:28:46.990Z,18.25
2023-05-02T03:31:19.244Z,17.05
2023-05-02T03:33:46.372Z,19.23
2023-05-02T03:36:13.649Z,18.40
2023-05-02T03:38:40.917Z,16.52
2023-05-02T03:41:11.616Z,16.40
2023-05-02T03:43:38.714Z,16.48
2023-05-02T03:46:08.030Z,15.15
2023-05-02T03:48:38.208Z,14.50
2023-05-02T03:51:07.791Z,15.93
2023-05-02T03:53:40.123Z,15.40
2023-05-02T03:56:08.548Z,14.90
2023-05-02T03:58:45.198Z,15.80
2023-05-02T04:01:16.559Z,15.48
2023-05-02T04:03:46.436Z,13.85
2023-05-02T04:06:15.597Z,14.80
2023-05-02T04:08:45.801Z,15.68
2023-05-02T04:11:12.912Z,14.02
2023-05-02T04:13:40.135Z,14.45
2023-05-02T04:16:07.691Z,14.43
2023-05-02T04:18:35.929Z,15.35
2023-05-02T04:21:09.341Z,15.35
2023-05-02T04:23:37.833Z,14.85
2023-05-02T04:26:06.341Z,14.70
2023-05-02T04:28:43.288Z,15.15
2023-05-02T04:33:40.137Z,13.60
2023-05-02T04:37:13.305Z,14.90
2023-05-02T04:39:43.051Z,14.63
2023-05-02T04:42:16.016Z,13.32
2023-05-02T04:44:51.126Z,13.77
2023-05-02T04:47:18.102Z,15.00
2023-05-02T04:49:45.622Z,14.85
2023-05-02T04:52:12.865Z,14.68
2023-05-02T04:54:39.968Z,14.70
2023-05-02T04:57:08.170Z,15.90
2023-05-02T04:59:38.695Z,14.18
2023-05-02T05:02:08.360Z,14.23
2023-05-02T05:04:36.193Z,16.23
2023-05-02T05:07:03.228Z,16.15
2023-05-02T05:09:30.513Z,14.50
2023-05-02T05:11:57.382Z,16.15
2023-05-02T05:14:24.758Z,17.17
2023-05-02T05:16:54.765Z,17.65
2023-05-02T05:19:22.434Z,16.98
2023-05-02T05:21:49.397Z,15.55
2023-05-02T05:24:18.698Z,15.95
2023-05-02T05:26:46.362Z,16.20
2023-05-02T05:29:13.956Z,15.82
2023-05-02T05:31:42.562Z,16.67
2023-05-02T05:34:11.437Z,15.33
2023-05-02T05:36:40.792Z,16.58
2023-05-02T05:39:07.898Z,15.68
2023-05-02T05:41:38.416Z,17.05
2023-05-02T05:44:08.541Z,16.25
2023-05-02T05:46:35.632Z,16.10
2023-05-02T05:49:03.925Z,16.27
2023-05-02T05:51:31.704Z,15.13
2023-05-02T05:54:00.074Z,14.48
2023-05-02T05:56:28.207Z,15.13
2023-05-02T05:59:01.641Z,13.60
2023-05-02T06:01:28.655Z,13.50
2023-05-02T06:03:55.974Z,15.70
2023-05-02T06:06:23.230Z,14.95
2023-05-02T06:08:52.294Z,14.20
2023-05-02T06:11:20.383Z,13.90
2023-05-02T06:13:47.417Z,13.02
2023-05-02T06:16:14.873Z,14.90
2023-05-02T06:18:41.897Z,13.77
2023-05-02T06:21:08.862Z,13.15
2023-05-02T06:23:38.544Z,12.80
2023-05-02T06:26:06.958Z,12.00
2023-05-02T06:28:34.004Z,12.40
2023-05-02T06:31:05.958Z,11.93
2023-05-02T06:33:34.426Z,11.80
2023-05-02T06:36:02.194Z,12.57
2023-05-02T06:38:29.742Z,13.00
2023-05-02T06:40:56.805Z,13.35
2023-05-02T06:43:23.885Z,12.20
2023-05-02T06:45:54.620Z,12.38
2023-05-02T06:48:21.933Z,11.68
2023-05-02T06:50:49.706Z,11.95
2023-05-02T06:53:16.771Z,11.40
2023-05-02T06:55:45.431Z,12.05
2023-05-02T06:58:12.497Z,12.00
2023-05-02T07:00:39.508Z,11.98
2023-05-02T07:03:06.718Z,11.85
2023-05-02T07:05:33.678Z,12.07
2023-05-02T07:08:00.736Z,12.00
2023-05-02T07:10:27.817Z,12.52
2023-05-02T07:12:54.746Z,12.20
2023-05-02T07:15:21.761Z,12.00
2023-05-02T07:17:49.687Z,12.50
2023-05-02T07:20:16.952Z,11.75
2023-05-02T07:22:44.032Z,11.85
2023-05-02T07:25:11.263Z,12.43
2023-05-02T07:27:38.339Z,11.73
2023-05-02T07:30:07.173Z,11.43
2023-05-02T07:32:34.598Z,11.45
2023-05-02T07:35:01.851Z,12.38
2023-05-02T07:37:34.452Z,12.18
2023-05-02T07:40:02.364Z,12.77
2023-05-02T07:42:31.217Z,12.27
2023-05-02T07:44:59.430Z,12.45
2023-05-02T07:47:26.893Z,11.57
2023-05-02T07:49:57.155Z,11.40
2023-05-02T07:52:24.337Z,12.07
2023-05-02T07:54:52.363Z,12.00
2023-05-02T07:57:19.619Z,11.48
2023-05-02T07:59:47.009Z,11.27
2023-05-02T08:02:14.295Z,12.27
2023-05-02T08:04:41.539Z,12.75
2023-05-02T08:07:08.685Z,12.65
2023-05-02T08:09:35.807Z,12.30
2023-05-02T08:12:03.459Z,13.35
2023-05-02T08:14:31.760Z,12.48
2023-05-02T08:16:59.636Z,12.15
2023-05-02T08:19:27.160Z,13.52
2023-05-02T08:21:55.142Z,13.65
2023-05-02T08:24:22.752Z,13.65
2023-05-02T08:26:49.962Z,13.52
2023-05-02T08:29:17.230Z,13.68
2023-05-02T08:31:44.479Z,14.05
2023-05-02T08:34:11.585Z,14.45
2023-05-02T08:36:38.631Z,14.80
2023-05-02T08:39:08.185Z,14.30
2023-05-02T08:41:35.472Z,14.48
2023-05-02T08:44:04.165Z,14.23
2023-05-02T08:46:32.448Z,14.02
2023-05-02T08:49:00.308Z,14.02
2023-05-02T08:51:29.712Z,14.13
2023-05-02T08:53:58.806Z,13.73
2023-05-02T08:56:26.406Z,14.43
2023-05-02T08:58:54.451Z,13.88
2023-05-02T09:01:23.992Z,15.15
2023-05-02T09:03:52.519Z,14.48
2023-05-02T09:06:23.099Z,14.75
2023-05-02T09:08:56.899Z,16.23
2023-05-02T09:11:24.365Z,15.02
2023-05-02T09:13:54.858Z,15.90
2023-05-02T09:16:28.202Z,15.75
2023-05-02T09:21:47.726Z,14.27
2023-05-02T09:24:20.233Z,13.55
2023-05-02T09:27:08.332Z,13.30
2023-05-02T09:29:41.453Z,14.45
2023-05-02T09:32:10.945Z,13.60
2023-05-02T09:34:39.466Z,13.88
2023-05-02T09:40:07.176Z,13.88
2023-05-02T09:42:34.151Z,14.98
2023-05-02T09:45:01.636Z,13.30
2023-05-02T09:47:28.995Z,13.82
2023-05-02T09:49:56.180Z,12.45
2023-05-02T09:52:23.557Z,13.18
2023-05-02T09:54:52.328Z,11.38
2023-05-02T09:57:19.939Z,12.98
2023-05-02T09:59:57.765Z,13.68
2023-05-02T10:02:32.893Z,12.55
2023-05-02T10:05:02.144Z,13.05
2023-05-02T10:07:29.857Z,12.25
2023-05-02T10:09:59.970Z,12.93
2023-05-02T10:12:30.101Z,13.00
2023-05-02T10:15:03.399Z,13.35
2023-05-02T10:17:44.755Z,13.00
2023-05-02T10:20:16.556Z,13.00
2023-05-02T10:22:45.364Z,12.48
2023-05-02T10:25:13.449Z,11.45
2023-05-02T10:27:40.813Z,13.07
2023-05-02T10:30:09.775Z,11.75
2023-05-02T10:32:38.224Z,11.97
2023-05-02T10:35:07.211Z,11.73
2023-05-02T10:37:36.654Z,11.00
2023-05-02T10:40:05.991Z,12.05
2023-05-02T10:42:39.649Z,11.95
2023-05-02T10:45:30.532Z,11.73
2023-05-02T10:48:19.139Z,11.07
2023-05-02T10:50:58.011Z,12.25
2023-05-02T10:53:40.394Z,13.10
2023-05-02T10:56:26.968Z,12.43
2023-05-02T10:59:28.560Z,12.38
2023-05-02T11:01:56.640Z,11.27
2023-05-02T11:04:24.294Z,12.10
2023-05-02T11:06:57.355Z,11.25
2023-05-02T11:09:24.433Z,10.68
2023-05-02T11:11:55.552Z,11.23
2023-05-02T11:14:25.693Z,10.43
2023-05-02T11:16:59.202Z,10.98
2023-05-02T11:19:31.504Z,11.27
2023-05-02T11:22:27.158Z,11.15
2023-05-02T11:24:54.686Z,11.40
2023-05-02T11:27:30.616Z,11.55
2023-05-02T11:29:59.874Z,11.73
2023-05-02T11:32:47.748Z,11.13
2023-05-02T11:35:24.589Z,11.57
2023-05-02T11:37:55.356Z,10.35
2023-05-02T11:40:23.275Z,10.68
2023-05-02T11:42:50.549Z,11.35
2023-05-02T11:45:18.677Z,11.65
2023-05-02T11:47:48.829Z,11.55
2023-05-02T11:50:17.938Z,11.18
2023-05-02T11:52:46.193Z,10.77
2023-05-02T11:55:15.252Z,10.30
2023-05-02T11:57:43.122Z,10.07
2023-05-02T12:00:13.449Z,10.68
2023-05-02T12:02:42.650Z,10.35
2023-05-02T12:05:11.822Z,10.02
2023-05-02T12:07:46.047Z,9.02
2023-05-02T12:10:14.549Z,10.90
2023-05-02T12:12:44.295Z,11.25
2023-05-02T12:15:12.730Z,11.20
2023-05-02T12:17:42.493Z,11.52
2023-05-02T12:20:10.773Z,12.20
2023-05-02T12:22:38.354Z,13.80
2023-05-02T12:25:06.388Z,14.82
2023-05-02T12:27:33.505Z,15.35
2023-05-02T12:30:01.167Z,16.52
2023-05-02T12:32:30.949Z,16.40
2023-05-02T12:34:59.224Z,15.45
2023-05-02T12:37:28.282Z,15.35
2023-05-02T12:39:56.855Z,14.55
2023-05-02T12:42:26.038Z,13.45
2023-05-02T12:44:53.390Z,14.70
2023-05-02T12:47:22.902Z,13.15
2023-05-02T12:49:54.302Z,11.68
2023-05-02T12:52:41.028Z,14.30
2023-05-02T12:55:18.449Z,13.35
2023-05-02T12:57:45.712Z,12.15
2023-05-02T13:00:16.793Z,12.90
2023-05-02T13:02:44.143Z,14.65
2023-05-02T13:05:15.408Z,13.98
2023-05-02T13:07:42.640Z,13.95
2023-05-02T13:10:09.876Z,13.05
2023-05-02T13:12:38.383Z,11.23
2023-05-02T13:15:07.246Z,10.70
2023-05-02T13:17:35.759Z,9.27
2023-05-02T13:20:03.744Z,10.18
2023-05-02T13:22:31.156Z,10.90
2023-05-02T13:25:02.083Z,10.23
2023-05-02T13:27:29.281Z,10.23
2023-05-02T13:29:56.257Z,9.15
2023-05-02T13:32:23.420Z,7.85
2023-05-02T13:34:50.731Z,8.10
2023-05-02T13:37:17.739Z,6.15
2023-05-02T13:39:44.690Z,6.70
2023-05-02T13:42:11.930Z,6.72
2023-05-02T13:44:39.009Z,4.97
2023-05-02T13:47:10.255Z,4.88
2023-05-02T13:49:37.333Z,4.85
2023-05-02T13:52:04.481Z,4.65
2023-05-02T13:54:31.538Z,4.80
2023-05-02T13:56:58.576Z,4.78
2023-05-02T13:59:25.669Z,4.70
2023-05-02T14:01:52.834Z,4.25
2023-05-02T14:04:21.634Z,4.55
2023-05-02T14:06:49.613Z,3.85
2023-05-02T14:09:22.386Z,3.55
2023-05-02T14:11:49.491Z,3.70
2023-05-02T14:14:16.648Z,3.50
2023-05-02T14:16:43.677Z,3.22
2023-05-02T14:19:14.098Z,3.40
2023-05-02T14:21:41.362Z,3.75
2023-05-02T14:24:08.457Z,3.83
2023-05-02T14:26:35.689Z,3.47
2023-05-02T14:29:02.691Z,5.00
2023-05-02T14:31:29.888Z,5.03
2023-05-02T14:33:57.003Z,5.53
2023-05-02T14:36:36.546Z,5.68
2023-05-02T14:39:03.697Z,5.80
2023-05-02T14:41:30.765Z,6.32
2023-05-02T14:43:57.778Z,6.38
2023-05-02T14:46:24.856Z,6.07
2023-05-02T14:48:51.887Z,6.50
2023-05-02T14:51:18.918Z,6.20
2023-05-02T14:53:51.377Z,5.38
2023-05-02T14:56:18.952Z,5.10
2023-05-02T14:58:50.222Z,5.82
2023-05-02T15:01:21.880Z,5.40
2023-05-02T15:04:05.757Z,5.75
2023-05-02T15:06:35.944Z,5.50
2023-05-02T15:09:03.766Z,4.95
2023-05-02T15:11:31.017Z,5.95
2023-05-02T15:13:59.420Z,5.55
2023-05-02T15:16:29.651Z,6.10
2023-05-02T15:18:56.855Z,6.22
2023-05-02T15:21:23.850Z,5.63
2023-05-02T15:23:50.830Z,5.68
2023-05-02T15:26:17.915Z,5.28
2023-05-02T15:28:44.899Z,4.75
2023-05-02T15:31:11.942Z,4.63
2023-05-02T15:33:38.968Z,5.22
2023-05-02T15:36:06.492Z,4.68
2023-05-02T15:38:37.003Z,4.45
2023-05-02T15:41:04.119Z,4.15
2023-05-02T15:43:31.574Z,3.55
2023-05-02T15:45:59.957Z,3.72
2023-05-02T15:48:33.177Z,4.57
2023-05-02T15:51:00.523Z,3.58
2023-05-02T15:53:28.135Z,4.05
2023-05-02T15:55:59.506Z,5.85
2023-05-02T15:58:26.497Z,5.53
2023-05-02T16:00:53.507Z,5.65
2023-05-02T16:03:20.771Z,5.85
2023-05-02T16:05:47.872Z,5.97
2023-05-02T16:08:14.928Z,5.70
2023-05-02T16:10:43.515Z,4.97
2023-05-02T16:13:10.903Z,5.45
2023-05-02T16:15:38.653Z,5.40
2023-05-02T16:18:05.950Z,5.30
2023-05-02T16:20:36.592Z,5.10
2023-05-02T16:23:04.583Z,4.80
2023-05-02T16:25:31.925Z,4.90
2023-05-02T16:27:58.969Z,4.20
2023-05-02T16:30:53.251Z,4.60
2023-05-02T16:33:45.086Z,4.35
2023-05-02T16:36:12.145Z,4.32
2023-05-02T16:38:39.116Z,3.85
2023-05-02T16:41:07.225Z,4.50
2023-05-02T16:43:34.261Z,3.92
2023-05-02T16:46:06.212Z,4.15
2023-05-02T16:48:34.023Z,3.90
2023-05-02T16:51:03.802Z,4.30
2023-05-02T16:53:43.572Z,3.83
2023-05-02T16:56:10.528Z,8.57
2023-05-02T16:58:37.481Z,3.88
2023-05-02T17:01:05.423Z,4.22
2023-05-02T17:03:32.517Z,3.67
2023-05-02T17:06:01.348Z,3.53
2023-05-02T17:08:28.775Z,4.63
2023-05-02T17:11:00.411Z,4.80
2023-05-02T17:13:27.542Z,3.58
2023-05-02T17:15:54.791Z,3.88
2023-05-02T17:18:22.099Z,4.65
2023-05-02T17:20:49.355Z,4.95
2023-05-02T17:23:16.436Z,4.13
2023-05-02T17:25:43.515Z,4.15
2023-05-02T17:28:10.823Z,3.85
2023-05-02T17:30:37.909Z,6.50
2023-05-02T17:33:05.199Z,4.05
2023-05-02T17:35:32.264Z,4.10
2023-05-02T17:37:59.363Z,3.97
2023-05-02T17:40:26.824Z,4.20
2023-05-02T17:42:55.395Z,4.50
2023-05-02T17:45:22.929Z,4.40
2023-05-02T17:47:51.482Z,4.55
2023-05-02T17:50:18.607Z,4.72
2023-05-02T17:52:45.748Z,4.07
2023-05-02T17:55:12.765Z,3.95
2023-05-02T17:57:39.732Z,3.83
2023-05-02T18:00:08.022Z,3.78
2023-05-02T18:02:38.768Z,3.75
2023-05-02T18:05:07.341Z,4.05
2023-05-02T18:07:34.347Z,4.32
2023-05-02T18:10:02.398Z,4.35
2023-05-02T18:12:29.746Z,3.83
2023-05-02T18:14:56.996Z,3.70
2023-05-02T18:17:24.293Z,4.05
2023-05-02T18:19:51.392Z,3.95
2023-05-02T18:22:21.368Z,3.53
2023-05-02T18:24:49.802Z,3.92
2023-05-02T18:27:17.342Z,3.85
2023-05-02T18:29:45.096Z,3.65
2023-05-02T18:32:12.167Z,3.78
2023-05-02T18:34:39.327Z,3.70
2023-05-02T18:37:07.071Z,3.75
2023-05-02T18:39:34.731Z,3.60
2023-05-02T18:42:06.276Z,3.58
2023-05-02T18:44:33.285Z,4.00
2023-05-02T18:47:01.056Z,3.20
2023-05-02T18:49:28.134Z,3.80
2023-05-02T18:51:55.181Z,3.05
2023-05-02T18:54:23.584Z,3.38
2023-05-02T18:56:50.676Z,2.55
2023-05-02T18:59:19.289Z,2.95
2023-05-02T19:01:50.973Z,2.97
2023-05-02T19:04:18.627Z,3.40
2023-05-02T19:06:46.237Z,3.20
2023-05-02T19:09:16.163Z,3.20
2023-05-02T19:14:16.257Z,2.67
2023-05-02T19:16:43.448Z,3.63
2023-05-02T19:19:13.887Z,3.47
2023-05-02T19:21:42.583Z,3.45
2023-05-02T19:24:13.147Z,3.90
2023-05-02T19:29:07.284Z,3.15
2023-05-02T19:31:34.552Z,3.53
2023-05-02T19:34:54.889Z,3.38
2023-05-02T19:37:21.949Z,3.85
2023-05-02T19:39:49.059Z,3.67
2023-05-02T19:42:15.993Z,4.05
2023-05-02T19:44:43.080Z,3.40
2023-05-02T19:47:10.056Z,3.50
2023-05-02T19:50:05.365Z,3.35
2023-05-02T19:52:32.453Z,3.58
2023-05-02T19:55:00.001Z,3.05
2023-05-02T19:57:28.897Z,2.90
2023-05-02T19:59:58.571Z,2.90
2023-05-02T20:05:30.253Z,2.42
2023-05-02T20:08:01.152Z,3.10
2023-05-02T20:10:31.624Z,2.75
2023-05-02T20:13:03.486Z,2.97
2023-05-02T20:15:52.736Z,2.53
2023-05-02T20:18:27.659Z,2.85
2023-05-02T20:20:58.867Z,2.50
2023-05-02T20:23:25.893Z,2.50
2023-05-02T20:25:53.008Z,2.67
2023-05-02T20:28:20.328Z,2.50
2023-05-02T20:30:51.809Z,2.60
2023-05-02T20:33:33.483Z,2.87
2023-05-02T20:36:08.574Z,2.88
2023-05-02T20:38:41.386Z,3.03
2023-05-02T20:41:12.766Z,3.03
2023-05-02T20:43:42.534Z,3.20
2023-05-02T20:46:19.267Z,3.00
2023-05-02T20:48:50.763Z,3.20
2023-05-02T20:52:09.333Z,2.83
2023-05-02T20:55:09.508Z,3.00
2023-05-02T20:57:43.179Z,3.38
2023-05-02T21:00:22.961Z,3.58
2023-05-02T21:03:26.330Z,3.75
2023-05-02T21:06:30.618Z,2.97
2023-05-02T21:08:58.508Z,4.03
2023-05-02T21:12:07.262Z,5.35
2023-05-02T21:18:00.410Z,3.58
2023-05-02T21:20:39.746Z,3.70
2023-05-02T21:23:07.097Z,3.30
2023-05-02T21:25:35.846Z,3.42
2023-05-02T21:29:28.017Z,3.45
2023-05-02T21:31:57.984Z,3.58
2023-05-02T21:34:30.797Z,3.58
2023-05-02T21:37:02.323Z,3.50
2023-05-02T21:39:29.476Z,3.33
2023-05-02T21:42:32.866Z,3.60
2023-05-02T21:53:54.472Z,4.20
2023-05-02T21:56:35.830Z,4.10
2023-05-02T22:03:34.480Z,3.95
2023-05-02T22:06:09.539Z,4.43
2023-05-02T22:08:42.258Z,4.32
2023-05-02T22:11:34.209Z,4.47
2023-05-02T22:14:01.353Z,5.10
2023-05-02T22:16:28.382Z,4.97
2023-05-02T22:19:31.550Z,5.00
2023-05-02T22:22:25.292Z,5.40
2023-05-02T22:24:55.022Z,5.65
2023-05-02T22:27:31.322Z,5.13
2023-05-02T22:30:56.288Z,5.90
2023-05-02T22:36:08.581Z,5.78
2023-05-02T22:38:41.659Z,5.60
2023-05-02T22:41:45.748Z,5.80
2023-05-02T22:44:43.331Z,6.30
2023-05-02T22:47:21.905Z,6.25
2023-05-02T22:50:14.426Z,6.68
2023-05-02T22:52:42.269Z,6.20
2023-05-02T22:55:13.011Z,7.30
2023-05-02T22:57:43.232Z,7.00
2023-05-02T23:00:11.089Z,6.82
2023-05-02T23:02:50.708Z,7.07
2023-05-02T23:05:22.385Z,6.72
2023-05-02T23:12:25.719Z,6.97
2023-05-02T23:16:00.997Z,7.38
2023-05-02T23:18:52.875Z,7.25
2023-05-02T23:41:30.193Z,7.57
2023-05-02T23:48:52.904Z,8.48
2023-05-02T23:51:43.961Z,8.18
2023-05-02T23:54:24.354Z,8.35
2023-05-02T23:57:33.053Z,8.88
